Time;durP1;ratioP1;P1;durP2;ratioP2;P2;SDS_P1;SDS_P2;PMS_P1;PMS_P2;Temp;Humidity;BMP_temperature;BMP_pressure;BME280_temperature;BME280_humidity;BME280_pressure;Samples;Min_cycle;Max_cycle;Signal;HPM_P1;HPM_P2
2022/05/09 00:00:07;;;;;;;;;;;;;;;;;;5054785;28;19916;-43
2022/05/09 00:02:32;;;;;;;;;;;;;;;;;;5054831;28;19912;-43
2022/05/09 00:04:57;;;;;;;;;;;;;;;;;;5054711;28;19916;-43
2022/05/09 00:07:23;;;;;;;;;;;;;;;;;;5054646;28;19916;-43
2022/05/09 00:09:48;;;;;;;;;;;;;;;;;;5054862;28;19916;-43
2022/05/09 00:12:13;;;;;;;;;;;;;;;;;;5055067;28;19913;-43
2022/05/09 00:14:38;;;;;;;;;;;;;;;;;;5054645;28;19909;-43
2022/05/09 00:17:03;;;;;;;;;;;;;;;;;;5054485;28;19913;-43
2022/05/09 00:19:28;;;;;;;;;;;;;;;;;;5054758;28;19912;-42
2022/05/09 00:21:53;;;;;;;;;;;;;;;;;;5054953;28;19909;-43
2022/05/09 00:24:18;;;;;;;;;;;;;;;;;;5054021;28;19917;-43
2022/05/09 00:26:43;;;;;;;;;;;;;;;;;;5054544;28;19913;-42
2022/05/09 00:29:10;;;;;;;;;;;;;;;;;;5054291;28;19909;-43
2022/05/09 00:31:36;;;;;;;;;;;;;;;;;;5054540;28;19928;-43
2022/05/09 00:34:01;;;;;;;;;;;;;;;;;;5054817;28;19909;-43
2022/05/09 00:36:26;;;;;;;;;;;;;;;;;;5054631;28;20287;-43
2022/05/09 00:38:51;;;;;;;;;;;;;;;;;;5054405;28;20279;-44
2022/05/09 00:41:28;;;;;;;;;;;;;;;;;;5054574;28;19913;-43
2022/05/09 00:43:54;;;;;;;;;;;;;;;;;;5055245;28;19999;-43
2022/05/09 00:46:20;;;;;;;;;;;;;;;;;;5058135;28;20451;-43
2022/05/09 00:48:45;;;;;;;;;;;;;;;;;;5057067;28;19931;-43
2022/05/09 00:51:10;;;;;;;;;;;;;;;;;;5058468;28;19952;-43
2022/05/09 00:53:35;;;;;;;;;;;;;;;;;;5058374;28;20320;-43
2022/05/09 00:56:00;;;;;;;;;;;;;;;;;;5058043;28;19908;-43
2022/05/09 00:58:25;;;;;;;;;;;;;;;;;;5057805;28;19912;-43
2022/05/09 01:00:51;;;;;;;;;;;;;;;;;;5057956;28;19909;-43
2022/05/09 01:03:18;;;;;;;;;;;;;;;;;;5058109;28;19932;-42
2022/05/09 01:05:50;;;;;;;;;;;;;;;;;;5057885;28;19913;-43
2022/05/09 01:08:15;;;;;;;;;;;;;;;;;;5056736;28;19912;-42
2022/05/09 01:10:40;;;;;;;;;;;;;;;;;;5057764;28;19920;-43
2022/05/09 01:13:06;;;;;;;;;;;;;;;;;;5057872;28;19916;-44
2022/05/09 01:15:31;;;;;;;;;;;;;;;;;;5057734;28;19967;-43
2022/05/09 01:17:56;;;;;;;;;;;;;;;;;;5057631;28;19939;-43
2022/05/09 01:20:21;;;;;;;;;;;;;;;;;;5057809;28;19958;-44
2022/05/09 01:22:46;;;;;;;;;;;;;;;;;;5058222;28;19916;-43
2022/05/09 01:25:11;;;;;;;;;;;;;;;;;;5057815;28;19912;-43
2022/05/09 01:27:37;;;;;;;;;;;;;;;;;;5057763;28;19909;-43
2022/05/09 01:30:02;;;;;;;;;;;;;;;;;;5059416;22;20404;-43
2022/05/09 01:32:27;;;;;;;;;;;;;;;;;;5037550;28;19920;-43
2022/05/09 01:34:52;;;;;;;;;;;;;;;;;;5037138;28;19913;-43
2022/05/09 01:37:17;;;;;;;;;;;;;;;;;;5037429;28;19909;-43
2022/05/09 01:39:42;;;;;;;;;;;;;;;;;;5037528;28;20011;-43
2022/05/09 01:42:07;;;;;;;;;;;;;;;;;;5039742;28;20366;-43
2022/05/09 01:44:32;;;;;;;;;;;;;;;;;;5057382;28;19988;-43
2022/05/09 01:49:42;;;;;;;;;;;;;;;;;;5057364;28;19970;-43
2022/05/09 01:52:07;;;;;;;;;;;;;;;;;;5057134;28;19909;-44
2022/05/09 01:54:32;;;;;;;;;;;;;;;;;;5057304;28;20279;-43
2022/05/09 01:56:57;;;;;;;;;;;;;;;;;;5056366;28;20322;-42
2022/05/09 01:59:22;;;;;;;;;;;;;;;;;;5057321;28;20402;-44
2022/05/09 02:01:47;;;;;;;;;;;;;;;;;;5057151;28;20000;-43
2022/05/09 02:04:12;;;;;;;;;;;;;;;;;;5057080;28;19909;-43
2022/05/09 02:06:37;;;;;;;;;;;;;;;;;;5057096;28;19909;-43
2022/05/09 02:09:03;;;;;;;;;;;;;;;;;;5056929;28;20399;-43
2022/05/09 02:11:28;;;;;;;;;;;;;;;;;;5056636;28;20424;-44
2022/05/09 02:13:53;;;;;;;;;;;;;;;;;;5056646;28;20271;-42
2022/05/09 02:16:18;;;;;;;;;;;;;;;;;;5057169;28;19909;-43
2022/05/09 02:18:43;;;;;;;;;;;;;;;;;;5056925;28;19912;-43
2022/05/09 02:21:08;;;;;;;;;;;;;;;;;;5056668;28;19913;-43
2022/05/09 02:23:33;;;;;;;;;;;;;;;;;;5056664;28;20253;-44
2022/05/09 02:25:58;;;;;;;;;;;;;;;;;;5056279;28;19912;-43
2022/05/09 02:28:23;;;;;;;;;;;;;;;;;;5055758;28;19913;-43
2022/05/09 02:30:49;;;;;;;;;;;;;;;;;;5056831;28;19920;-44
2022/05/09 02:33:14;;;;;;;;;;;;;;;;;;5056684;28;19909;-43
2022/05/09 02:35:39;;;;;;;;;;;;;;;;;;5056333;28;19995;-42
2022/05/09 02:38:04;;;;;;;;;;;;;;;;;;5056381;28;20015;-43
2022/05/09 02:40:29;;;;;;;;;;;;;;;;;;5056502;28;20054;-43
2022/05/09 02:42:56;;;;;;;;;;;;;;;;;;5056163;28;19909;-42
2022/05/09 02:45:21;;;;;;;;;;;;;;;;;;5056222;28;19962;-43
2022/05/09 02:47:46;;;;;;;;;;;;;;;;;;5056164;28;19912;-43
2022/05/09 02:50:11;;;;;;;;;;;;;;;;;;5056039;28;19909;-43
2022/05/09 02:52:37;;;;;;;;;;;;;;;;;;5055834;28;19904;-43
2022/05/09 02:55:02;;;;;;;;;;;;;;;;;;5055697;28;19920;-43
2022/05/09 02:57:27;;;;;;;;;;;;;;;;;;5055888;28;20015;-43
2022/05/09 02:59:52;;;;;;;;;;;;;;;;;;5055835;28;20000;-42
2022/05/09 03:02:18;;;;;;;;;;;;;;;;;;5055712;28;19916;-43
2022/05/09 03:04:43;;;;;;;;;;;;;;;;;;5055619;28;19913;-43
2022/05/09 03:07:08;;;;;;;;;;;;;;;;;;5055312;28;19909;-43
2022/05/09 03:09:33;;;;;;;;;;;;;;;;;;5055610;28;20360;-43
2022/05/09 03:11:58;;;;;;;;;;;;;;;;;;5055391;28;19932;-43
2022/05/09 03:14:23;;;;;;;;;;;;;;;;;;5055581;28;19916;-43
2022/05/09 03:16:48;;;;;;;;;;;;;;;;;;5055703;28;19909;-43
2022/05/09 03:19:13;;;;;;;;;;;;;;;;;;5054653;28;19913;-43
2022/05/09 03:21:38;;;;;;;;;;;;;;;;;;5055537;28;20413;-43
2022/05/09 03:24:04;;;;;;;;;;;;;;;;;;5055810;28;19909;-43
2022/05/09 03:26:29;;;;;;;;;;;;;;;;;;5055148;28;19913;-43
2022/05/09 03:28:54;;;;;;;;;;;;;;;;;;5055524;28;20414;-43
2022/05/09 03:31:19;;;;;;;;;;;;;;;;;;5055497;28;19920;-43
2022/05/09 03:33:45;;;;;;;;;;;;;;;;;;5055565;28;19908;-43
2022/05/09 03:36:10;;;;;;;;;;;;;;;;;;5055395;28;19909;-43
2022/05/09 03:38:35;;;;;;;;;;;;;;;;;;5054003;28;19917;-43
2022/05/09 03:41:01;;;;;;;;;;;;;;;;;;5055425;28;19917;-44
2022/05/09 03:43:26;;;;;;;;;;;;;;;;;;5055067;28;19913;-43
2022/05/09 03:45:52;;;;;;;;;;;;;;;;;;5055051;28;20284;-44
2022/05/09 03:48:17;;;;;;;;;;;;;;;;;;5055349;28;19913;-43
2022/05/09 03:50:42;;;;;;;;;;;;;;;;;;5055241;28;19962;-43
2022/05/09 03:53:07;;;;;;;;;;;;;;;;;;5055167;28;19999;-43
2022/05/09 03:55:33;;;;;;;;;;;;;;;;;;5054926;28;19912;-43
2022/05/09 03:57:58;;;;;;;;;;;;;;;;;;5055013;28;19917;-44
2022/05/09 04:00:24;;;;;;;;;;;;;;;;;;5055147;28;19909;-43
2022/05/09 04:02:49;;;;;;;;;;;;;;;;;;5054929;28;19909;-43
2022/05/09 04:05:17;;;;;;;;;;;;;;;;;;5054743;28;19916;-43
2022/05/09 04:07:43;;;;;;;;;;;;;;;;;;5054904;28;19913;-44
2022/05/09 04:10:09;;;;;;;;;;;;;;;;;;5055002;28;19913;-43
2022/05/09 04:12:34;;;;;;;;;;;;;;;;;;5055242;28;19999;-43
2022/05/09 04:17:44;;;;;;;;;;;;;;;;;;5055285;28;20290;-44
2022/05/09 04:20:09;;;;;;;;;;;;;;;;;;5057491;28;19953;-42
2022/05/09 04:22:34;;;;;;;;;;;;;;;;;;5058798;28;20417;-43
2022/05/09 04:25:00;;;;;;;;;;;;;;;;;;5058348;28;20359;-42
2022/05/09 04:27:25;;;;;;;;;;;;;;;;;;5058865;28;20007;-42
2022/05/09 04:29:51;;;;;;;;;;;;;;;;;;5058810;28;19968;-43
2022/05/09 04:32:17;;;;;;;;;;;;;;;;;;5059184;28;19944;-43
2022/05/09 04:34:42;;;;;;;;;;;;;;;;;;5059457;28;19913;-43
2022/05/09 04:37:07;;;;;;;;;;;;;;;;;;5058549;28;19954;-43
2022/05/09 04:39:33;;;;;;;;;;;;;;;;;;5058436;28;20015;-42
2022/05/09 04:41:58;;;;;;;;;;;;;;;;;;5058541;28;19909;-43
2022/05/09 04:44:23;;;;;;;;;;;;;;;;;;5058489;28;19909;-43
2022/05/09 04:46:48;;;;;;;;;;;;;;;;;;5058644;28;20272;-43
2022/05/09 04:49:13;;;;;;;;;;;;;;;;;;5058510;28;20352;-43
2022/05/09 04:51:38;;;;;;;;;;;;;;;;;;5058041;28;20364;-43
2022/05/09 04:54:03;;;;;;;;;;;;;;;;;;5057575;28;20256;-43
2022/05/09 04:56:29;;;;;;;;;;;;;;;;;;5058179;28;19951;-44
2022/05/09 04:58:54;;;;;;;;;;;;;;;;;;5058086;28;19920;-43
2022/05/09 05:01:19;;;;;;;;;;;;;;;;;;5057861;28;19916;-43
2022/05/09 05:03:44;;;;;;;;;;;;;;;;;;5058077;28;19916;-42
2022/05/09 05:06:09;;;;;;;;;;;;;;;;;;5073340;28;19909;-43
2022/05/09 05:08:35;;;;;;;;;;;;;;;;;;5058452;28;19915;-43
2022/05/09 05:11:00;;;;;;;;;;;;;;;;;;5058022;28;19909;-43
2022/05/09 05:13:26;;;;;;;;;;;;;;;;;;5057757;28;19909;-44
2022/05/09 05:15:51;;;;;;;;;;;;;;;;;;5058098;28;19909;-44
2022/05/09 05:18:16;;;;;;;;;;;;;;;;;;5057726;28;19913;-43
2022/05/09 05:20:41;;;;;;;;;;;;;;;;;;5057839;28;19916;-43
2022/05/09 05:23:07;;;;;;;;;;;;;;;;;;5057779;28;20355;-43
2022/05/09 05:25:32;;;;;;;;;;;;;;;;;;5053768;28;19936;-48
2022/05/09 05:27:57;;;;;;;;;;;;;;;;;;5059171;28;19920;-48
2022/05/09 05:30:23;;;;;;;;;;;;;;;;;;5053572;28;19925;-48
2022/05/09 05:32:48;;;;;;;;;;;;;;;;;;5056563;28;19920;-48
2022/05/09 05:35:14;;;;;;;;;;;;;;;;;;5059474;28;19913;-47
2022/05/09 05:37:39;;;;;;;;;;;;;;;;;;5053846;28;20003;-47
2022/05/09 05:40:05;;;;;;;;;;;;;;;;;;5053797;28;19967;-47
2022/05/09 05:42:30;;;;;;;;;;;;;;;;;;5053571;28;19967;-48
2022/05/09 05:44:56;;;;;;;;;;;;;;;;;;5046838;28;19912;-48
2022/05/09 05:47:21;;;;;;;;;;;;;;;;;;5044713;28;21816;-47
2022/05/09 05:49:46;;;;;;;;;;;;;;;;;;5049259;28;19913;-48
2022/05/09 05:52:11;;;;;;;;;;;;;;;;;;5044030;28;19966;-49
2022/05/09 05:54:36;;;;;;;;;;;;;;;;;;5035989;28;19926;-48
2022/05/09 05:57:02;;;;;;;;;;;;;;;;;;5020574;28;20025;-48
2022/05/09 05:59:27;;;;;;;;;;;;;;;;;;5034175;28;19928;-48
2022/05/09 06:01:52;;;;;;;;;;;;;;;;;;5031894;28;19920;-49
2022/05/09 06:04:17;;;;;;;;;;;;;;;;;;5017134;28;19920;-48
2022/05/09 06:06:42;;;;;;;;;;;;;;;;;;5024907;28;19994;-47
2022/05/09 06:09:09;;;;;;;;;;;;;;;;;;5010452;28;19931;-46
2022/05/09 06:11:35;;;;;;;;;;;;;;;;;;5005888;28;19925;-48
2022/05/09 06:14:03;;;;;;;;;;;;;;;;;;4972715;28;19921;-47
2022/05/09 06:16:29;;;;;;;;;;;;;;;;;;4899681;28;21884;-48
2022/05/09 06:18:54;;;;;;;;;;;;;;;;;;4865914;28;23337;-48
2022/05/09 06:21:19;;;;;;;;;;;;;;;;;;4825197;28;21135;-48
2022/05/09 06:23:44;;;;;;;;;;;;;;;;;;4715334;28;19921;-49
2022/05/09 06:26:09;;;;;;;;;;;;;;;;;;4644351;28;21724;-49
2022/05/09 06:28:34;;;;;;;;;;;;;;;;;;4617064;28;19920;-47
2022/05/09 06:31:01;;;;;;;;;;;;;;;;;;4653940;28;20079;-49
2022/05/09 06:33:28;;;;;;;;;;;;;;;;;;4686242;28;21898;-48
2022/05/09 06:35:53;;;;;;;;;;;;;;;;;;4800391;28;20649;-48
2022/05/09 06:38:19;;;;;;;;;;;;;;;;;;4820063;28;21167;-48
2022/05/09 06:40:44;;;;;;;;;;;;;;;;;;4862648;28;19921;-48
2022/05/09 06:43:09;;;;;;;;;;;;;;;;;;4879257;28;24012;-49
2022/05/09 06:45:35;;;;;;;;;;;;;;;;;;4866039;28;19920;-47
2022/05/09 06:48:00;;;;;;;;;;;;;;;;;;4879416;28;20146;-48
2022/05/09 06:50:25;;;;;;;;;;;;;;;;;;4847023;28;21689;-47
2022/05/09 06:52:50;;;;;;;;;;;;;;;;;;4817643;28;20974;-48
2022/05/09 06:55:15;;;;;;;;;;;;;;;;;;4756930;28;21619;-48
2022/05/09 06:57:41;;;;;;;;;;;;;;;;;;4776323;28;20421;-48
2022/05/09 07:00:06;;;;;;;;;;;;;;;;;;4782482;28;20401;-48
2022/05/09 07:02:31;;;;;;;;;;;;;;;;;;4676644;28;22340;-49
2022/05/09 07:04:56;;;;;;;;;;;;;;;;;;4652664;28;19925;-48
2022/05/09 07:07:22;;;;;;;;;;;;;;;;;;4612303;28;23453;-48
2022/05/09 07:09:47;;;;;;;;;;;;;;;;;;4564308;28;22348;-48
2022/05/09 07:12:12;;;;;;;;;;;;;;;;;;4409165;28;23572;-47
2022/05/09 07:14:37;;;;;;;;;;;;;;;;;;4549796;28;26235;-49
2022/05/09 07:17:04;;;;;;;;;;;;;;;;;;4618045;28;22068;-48
2022/05/09 07:19:31;;;;;;;;;;;;;;;;;;4639102;28;20867;-48
2022/05/09 07:21:56;;;;;;;;;;;;;;;;;;4685004;28;21223;-49
2022/05/09 07:24:21;;;;;;;;;;;;;;;;;;4699725;28;34483;-49
2022/05/09 07:26:47;;;;;;;;;;;;;;;;;;4748330;28;21099;-49
2022/05/09 07:29:12;;;;;;;;;;;;;;;;;;4709485;28;19921;-48
2022/05/09 07:31:38;;;;;;;;;;;;;;;;;;4683057;28;21826;-49
2022/05/09 07:34:03;;;;;;;;;;;;;;;;;;4702900;28;19921;-49
2022/05/09 07:36:28;;;;;;;;;;;;;;;;;;4685576;28;24414;-49
2022/05/09 07:38:53;;;;;;;;;;;;;;;;;;4717299;28;19978;-49
2022/05/09 07:41:19;;;;;;;;;;;;;;;;;;4660811;28;41910;-50
2022/05/09 07:43:44;;;;;;;;;;;;;;;;;;4664508;28;31102;-49
2022/05/09 07:46:09;;;;;;;;;;;;;;;;;;4661329;28;21012;-50
2022/05/09 07:48:34;;;;;;;;;;;;;;;;;;4643658;28;20771;-48
2022/05/09 07:51:00;;;;;;;;;;;;;;;;;;4577704;28;21443;-49
2022/05/09 07:53:25;;;;;;;;;;;;;;;;;;4402468;28;24473;-47
2022/05/09 07:55:50;;;;;;;;;;;;;;;;;;4548710;28;21786;-48
2022/05/09 07:58:15;;;;;;;;;;;;;;;;;;4687748;28;20536;-48
2022/05/09 08:00:40;;;;;;;;;;;;;;;;;;4668758;28;19921;-47
2022/05/09 08:03:05;;;;;;;;;;;;;;;;;;4678625;28;19925;-47
2022/05/09 08:05:31;;;;;;;;;;;;;;;;;;4727068;28;22617;-47
2022/05/09 08:07:56;;;;;;;;;;;;;;;;;;4638618;28;19928;-47
2022/05/09 08:10:21;;;;;;;;;;;;;;;;;;4584866;28;27440;-47
2022/05/09 08:12:47;;;;;;;;;;;;;;;;;;4602756;28;32298;-48
2022/05/09 08:15:12;;;;;;;;;;;;;;;;;;4579837;28;26037;-48
2022/05/09 08:17:37;;;;;;;;;;;;;;;;;;4734504;28;21667;-49
2022/05/09 08:20:02;;;;;;;;;;;;;;;;;;4780206;28;28543;-48
2022/05/09 08:22:31;;;;;;;;;;;;;;;;;;4726623;28;19924;-50
2022/05/09 08:24:56;;;;;;;;;;;;;;;;;;4779819;28;21361;-50
2022/05/09 08:27:21;;;;;;;;;;;;;;;;;;4772000;28;20510;-49
2022/05/09 08:29:46;;;;;;;;;;;;;;;;;;4778862;28;21602;-48
2022/05/09 08:32:11;;;;;;;;;;;;;;;;;;4755321;28;28455;-48
2022/05/09 08:34:37;;;;;;;;;;;;;;;;;;4803795;28;19925;-48
2022/05/09 08:37:02;;;;;;;;;;;;;;;;;;4787011;28;20064;-49
2022/05/09 08:39:27;;;;;;;;;;;;;;;;;;4766141;28;19932;-48
2022/05/09 08:41:54;;;;;;;;;;;;;;;;;;4732794;28;19925;-49
2022/05/09 08:44:19;;;;;;;;;;;;;;;;;;4761458;28;20580;-49
2022/05/09 08:46:44;;;;;;;;;;;;;;;;;;4771706;28;19920;-47
2022/05/09 08:49:09;;;;;;;;;;;;;;;;;;4766232;28;19966;-49
2022/05/09 08:51:34;;;;;;;;;;;;;;;;;;4599431;28;20679;-48
2022/05/09 08:53:59;;;;;;;;;;;;;;;;;;4444981;28;20497;-48
2022/05/09 08:56:24;;;;;;;;;;;;;;;;;;4604394;28;21789;-47
2022/05/09 08:58:51;;;;;;;;;;;;;;;;;;4650568;28;24386;-49
2022/05/09 09:01:16;;;;;;;;;;;;;;;;;;4705172;28;22366;-46
2022/05/09 09:03:43;;;;;;;;;;;;;;;;;;4791505;28;21390;-49
2022/05/09 09:06:08;;;;;;;;;;;;;;;;;;4808780;28;20301;-46
2022/05/09 09:08:37;;;;;;;;;;;;;;;;;;4805444;28;20033;-48
2022/05/09 09:11:02;;;;;;;;;;;;;;;;;;4807422;28;20302;-47
2022/05/09 09:13:28;;;;;;;;;;;;;;;;;;4826907;28;21657;-47
2022/05/09 09:15:53;;;;;;;;;;;;;;;;;;4785484;28;20010;-47
2022/05/09 09:18:19;;;;;;;;;;;;;;;;;;4791659;28;21118;-49
2022/05/09 09:20:44;;;;;;;;;;;;;;;;;;4812738;28;20882;-47
2022/05/09 09:23:14;;;;;;;;;;;;;;;;;;4797437;28;20013;-47
2022/05/09 09:25:42;;;;;;;;;;;;;;;;;;4801810;28;24248;-49
2022/05/09 09:28:07;;;;;;;;;;;;;;;;;;4741478;28;23347;-46
2022/05/09 09:30:33;;;;;;;;;;;;;;;;;;4665955;28;19951;-47
2022/05/09 09:32:58;;;;;;;;;;;;;;;;;;4488067;28;23903;-52
2022/05/09 09:35:24;;;;;;;;;;;;;;;;;;4574350;28;20918;-48
2022/05/09 09:37:49;;;;;;;;;;;;;;;;;;4646930;28;37426;-48
2022/05/09 09:40:14;;;;;;;;;;;;;;;;;;4746195;28;20717;-49
2022/05/09 09:42:40;;;;;;;;;;;;;;;;;;4774938;28;33873;-49
2022/05/09 09:45:05;;;;;;;;;;;;;;;;;;4745217;28;27016;-46
2022/05/09 09:47:30;;;;;;;;;;;;;;;;;;4754067;28;24382;-44
2022/05/09 09:49:55;;;;;;;;;;;;;;;;;;4777665;28;23644;-44
2022/05/09 09:52:21;;;;;;;;;;;;;;;;;;4690334;28;20757;-45
2022/05/09 09:54:46;;;;;;;;;;;;;;;;;;4567979;28;24403;-44
2022/05/09 09:57:11;;;;;;;;;;;;;;;;;;4606216;28;37561;-44
2022/05/09 09:59:36;;;;;;;;;;;;;;;;;;4696453;28;32761;-44
2022/05/09 10:02:02;;;;;;;;;;;;;;;;;;4659591;28;21278;-44
2022/05/09 10:04:27;;;;;;;;;;;;;;;;;;4678570;28;31421;-44
2022/05/09 10:06:52;;;;;;;;;;;;;;;;;;4753949;28;21448;-44
2022/05/09 10:09:17;;;;;;;;;;;;;;;;;;4749602;28;19924;-43
2022/05/09 10:11:42;;;;;;;;;;;;;;;;;;4716700;28;21481;-46
2022/05/09 10:14:07;;;;;;;;;;;;;;;;;;4671925;28;19927;-44
2022/05/09 10:16:33;;;;;;;;;;;;;;;;;;4733623;28;30872;-44
2022/05/09 10:18:58;;;;;;;;;;;;;;;;;;4779181;28;19924;-43
2022/05/09 10:26:51;;;;;;;;;;;;;;;;;;4783714;28;20070;-44
2022/05/09 10:29:17;;;;;;;;;;;;;;;;;;4794620;28;21858;-48
2022/05/09 10:31:42;;;;;;;;;;;;;;;;;;4762866;28;20662;-45
2022/05/09 10:34:07;;;;;;;;;;;;;;;;;;4745817;28;25656;-44
2022/05/09 10:36:32;;;;;;;;;;;;;;;;;;4577659;28;20100;-49
2022/05/09 10:38:58;;;;;;;;;;;;;;;;;;4522674;28;22794;-44
2022/05/09 10:41:23;;;;;;;;;;;;;;;;;;4573346;28;31949;-44
2022/05/09 10:43:48;;;;;;;;;;;;;;;;;;4596538;28;30563;-43
2022/05/09 10:46:13;;;;;;;;;;;;;;;;;;4750336;28;24978;-44
2022/05/09 10:48:38;;;;;;;;;;;;;;;;;;4734960;28;35111;-44
2022/05/09 10:51:03;;;;;;;;;;;;;;;;;;4740037;28;32266;-44
2022/05/09 10:53:28;;;;;;;;;;;;;;;;;;4744788;28;43516;-44
2022/05/09 10:55:54;;;;;;;;;;;;;;;;;;4786450;28;32624;-44
2022/05/09 10:58:19;;;;;;;;;;;;;;;;;;4761159;28;29349;-43
2022/05/09 11:00:44;;;;;;;;;;;;;;;;;;4752402;28;29493;-43
2022/05/09 11:03:09;;;;;;;;;;;;;;;;;;4772394;28;27725;-45
2022/05/09 11:05:34;;;;;;;;;;;;;;;;;;4723670;28;22388;-43
2022/05/09 11:07:59;;;;;;;;;;;;;;;;;;4766701;28;19921;-44
2022/05/09 11:10:24;;;;;;;;;;;;;;;;;;4779615;28;28320;-43
2022/05/09 11:12:50;;;;;;;;;;;;;;;;;;4739994;28;19951;-43
2022/05/09 11:15:15;;;;;;;;;;;;;;;;;;4674406;28;23384;-44
2022/05/09 11:17:40;;;;;;;;;;;;;;;;;;4480345;28;24818;-43
2022/05/09 11:20:05;;;;;;;;;;;;;;;;;;4588574;28;20327;-46
2022/05/09 11:22:30;;;;;;;;;;;;;;;;;;4685260;28;20991;-44
2022/05/09 11:24:58;;;;;;;;;;;;;;;;;;4752719;28;19921;-44
2022/05/09 11:27:23;;;;;;;;;;;;;;;;;;4816416;28;20482;-45
2022/05/09 11:29:48;;;;;;;;;;;;;;;;;;4892558;28;21486;-44
2022/05/09 11:32:13;;;;;;;;;;;;;;;;;;4870560;28;21460;-44
2022/05/09 11:34:38;;;;;;;;;;;;;;;;;;4887794;28;19928;-44
2022/05/09 11:37:04;;;;;;;;;;;;;;;;;;4879769;28;21702;-42
2022/05/09 11:39:29;;;;;;;;;;;;;;;;;;4846612;28;20466;-43
2022/05/09 11:41:54;;;;;;;;;;;;;;;;;;4872553;28;30171;-42
2022/05/09 11:44:19;;;;;;;;;;;;;;;;;;4860247;28;22825;-44
2022/05/09 11:46:45;;;;;;;;;;;;;;;;;;4864852;28;19928;-44
2022/05/09 11:49:10;;;;;;;;;;;;;;;;;;4860305;28;24561;-43
2022/05/09 11:51:35;;;;;;;;;;;;;;;;;;4845519;28;30283;-42
2022/05/09 11:54:00;;;;;;;;;;;;;;;;;;4814634;28;21438;-43
2022/05/09 11:56:25;;;;;;;;;;;;;;;;;;4738848;28;20022;-43
2022/05/09 11:58:50;;;;;;;;;;;;;;;;;;4714708;28;20996;-43
2022/05/09 12:01:15;;;;;;;;;;;;;;;;;;4789998;28;21803;-43
2022/05/09 12:03:40;;;;;;;;;;;;;;;;;;4846003;28;20868;-43
2022/05/09 12:06:05;;;;;;;;;;;;;;;;;;4917213;28;19928;-44
2022/05/09 12:08:31;;;;;;;;;;;;;;;;;;4954383;28;19925;-43
2022/05/09 12:10:56;;;;;;;;;;;;;;;;;;4958687;28;20359;-45
2022/05/09 12:13:24;;;;;;;;;;;;;;;;;;4981496;28;20384;-45
2022/05/09 12:15:49;;;;;;;;;;;;;;;;;;4965023;28;19927;-43
2022/05/09 12:18:14;;;;;;;;;;;;;;;;;;4975656;28;20962;-43
2022/05/09 12:20:39;;;;;;;;;;;;;;;;;;4979581;28;20003;-43
2022/05/09 12:23:05;;;;;;;;;;;;;;;;;;4974852;28;21536;-43
2022/05/09 12:25:30;;;;;;;;;;;;;;;;;;4966870;28;21759;-43
2022/05/09 12:27:55;;;;;;;;;;;;;;;;;;4976014;28;20205;-43
2022/05/09 12:30:20;;;;;;;;;;;;;;;;;;4969844;28;20384;-44
2022/05/09 12:32:45;;;;;;;;;;;;;;;;;;4943832;28;19973;-44
2022/05/09 12:35:10;;;;;;;;;;;;;;;;;;4926375;28;19969;-44
2022/05/09 12:37:35;;;;;;;;;;;;;;;;;;4891009;28;19928;-43
2022/05/09 12:40:00;;;;;;;;;;;;;;;;;;4874663;28;19932;-43
2022/05/09 12:42:26;;;;;;;;;;;;;;;;;;4946139;28;20047;-43
2022/05/09 12:44:51;;;;;;;;;;;;;;;;;;4975590;28;19920;-44
2022/05/09 12:47:16;;;;;;;;;;;;;;;;;;4998488;28;19932;-44
2022/05/09 12:49:41;;;;;;;;;;;;;;;;;;5016785;28;20010;-43
2022/05/09 12:52:09;;;;;;;;;;;;;;;;;;5024968;28;19951;-44
2022/05/09 12:54:35;;;;;;;;;;;;;;;;;;5022009;28;19921;-44
2022/05/09 12:57:00;;;;;;;;;;;;;;;;;;5021122;28;19921;-44
2022/05/09 12:59:25;;;;;;;;;;;;;;;;;;5026196;28;19927;-44
2022/05/09 13:01:51;;;;;;;;;;;;;;;;;;5021420;28;19928;-45
2022/05/09 13:04:16;;;;;;;;;;;;;;;;;;5020257;28;19913;-44
2022/05/09 13:06:41;;;;;;;;;;;;;;;;;;5017374;28;19920;-44
2022/05/09 13:09:06;;;;;;;;;;;;;;;;;;5016854;28;19927;-45
2022/05/09 13:11:32;;;;;;;;;;;;;;;;;;5010612;28;19975;-43
2022/05/09 13:13:58;;;;;;;;;;;;;;;;;;5016401;28;19913;-45
2022/05/09 13:16:23;;;;;;;;;;;;;;;;;;5008762;28;19928;-44
2022/05/09 13:18:50;;;;;;;;;;;;;;;;;;4996946;28;19925;-44
2022/05/09 13:21:15;;;;;;;;;;;;;;;;;;5003841;28;19921;-44
2022/05/09 13:23:40;;;;;;;;;;;;;;;;;;5019130;28;19928;-43
2022/05/09 13:26:06;;;;;;;;;;;;;;;;;;5028914;28;19921;-44
2022/05/09 13:28:31;;;;;;;;;;;;;;;;;;5028524;28;19967;-45
2022/05/09 13:30:56;;;;;;;;;;;;;;;;;;5019406;22;19971;-43
2022/05/09 13:33:21;;;;;;;;;;;;;;;;;;5010307;28;19922;-43
2022/05/09 13:35:46;;;;;;;;;;;;;;;;;;5021971;28;19913;-45
2022/05/09 13:38:11;;;;;;;;;;;;;;;;;;5016595;28;20430;-44
2022/05/09 13:40:36;;;;;;;;;;;;;;;;;;5019099;28;19921;-43
2022/05/09 13:43:02;;;;;;;;;;;;;;;;;;5013491;28;19921;-45
2022/05/09 13:45:27;;;;;;;;;;;;;;;;;;5016752;28;19998;-45
2022/05/09 13:47:52;;;;;;;;;;;;;;;;;;5029035;28;20334;-44
2022/05/09 13:50:17;;;;;;;;;;;;;;;;;;5035341;28;20392;-45
2022/05/09 13:52:43;;;;;;;;;;;;;;;;;;5031874;28;20410;-44
2022/05/09 13:55:08;;;;;;;;;;;;;;;;;;5037483;28;20051;-44
2022/05/09 13:57:33;;;;;;;;;;;;;;;;;;5039646;28;19921;-44
2022/05/09 13:59:58;;;;;;;;;;;;;;;;;;5043344;28;19920;-45
2022/05/09 14:02:23;;;;;;;;;;;;;;;;;;5029026;28;20039;-44
2022/05/09 14:04:48;;;;;;;;;;;;;;;;;;5028590;28;20372;-45
2022/05/09 14:09:57;;;;;;;;;;;;;;;;;;5036083;28;19927;-44
2022/05/09 14:12:23;;;;;;;;;;;;;;;;;;5026433;28;19921;-44
2022/05/09 14:14:48;;;;;;;;;;;;;;;;;;5035485;28;19913;-45
2022/05/09 14:17:13;;;;;;;;;;;;;;;;;;5040583;28;19912;-44
2022/05/09 14:19:38;;;;;;;;;;;;;;;;;;5057953;28;19925;-44
2022/05/09 14:22:03;;;;;;;;;;;;;;;;;;5050504;28;19942;-45
2022/05/09 14:24:28;;;;;;;;;;;;;;;;;;5039611;28;19917;-44
2022/05/09 14:29:38;;;;;;;;;;;;;;;;;;5046361;28;20023;-44
2022/05/09 14:32:05;;;;;;;;;;;;;;;;;;5045955;28;19959;-45
2022/05/09 14:34:31;;;;;;;;;;;;;;;;;;5048358;28;20593;-44
2022/05/09 14:36:58;;;;;;;;;;;;;;;;;;5047099;28;19920;-44
2022/05/09 14:39:26;;;;;;;;;;;;;;;;;;5045557;28;19995;-44
2022/05/09 14:41:51;;;;;;;;;;;;;;;;;;5048249;28;19913;-44
2022/05/09 14:44:17;;;;;;;;;;;;;;;;;;5044072;28;20408;-44
2022/05/09 14:46:42;;;;;;;;;;;;;;;;;;5040623;28;20012;-44
2022/05/09 14:49:07;;;;;;;;;;;;;;;;;;5046250;28;20004;-43
2022/05/09 14:51:32;;;;;;;;;;;;;;;;;;5043173;28;20545;-45
2022/05/09 14:54:01;;;;;;;;;;;;;;;;;;5049732;28;19956;-45
2022/05/09 14:59:10;;;;;;;;;;;;;;;;;;5045634;28;20453;-45
2022/05/09 15:01:35;;;;;;;;;;;;;;;;;;5044611;28;20051;-45
2022/05/09 15:04:01;;;;;;;;;;;;;;;;;;5043388;28;19921;-44
2022/05/09 15:06:26;;;;;;;;;;;;;;;;;;5038538;28;19912;-45
2022/05/09 15:08:51;;;;;;;;;;;;;;;;;;5046135;28;19913;-45
2022/05/09 15:11:18;;;;;;;;;;;;;;;;;;5042327;28;19924;-44
2022/05/09 15:13:43;;;;;;;;;;;;;;;;;;5046553;28;19916;-44
2022/05/09 15:16:09;;;;;;;;;;;;;;;;;;5047068;28;20017;-45
2022/05/09 15:18:34;;;;;;;;;;;;;;;;;;5049326;28;20667;-47
2022/05/09 15:21:01;;;;;;;;;;;;;;;;;;5042568;28;19920;-44
2022/05/09 15:23:26;;;;;;;;;;;;;;;;;;5040517;28;20377;-45
2022/05/09 15:25:51;;;;;;;;;;;;;;;;;;5047583;28;19913;-44
2022/05/09 15:28:16;;;;;;;;;;;;;;;;;;5044696;28;19999;-45
2022/05/09 15:30:41;;;;;;;;;;;;;;;;;;5045648;28;20037;-44
2022/05/09 15:33:07;;;;;;;;;;;;;;;;;;5041495;28;20364;-44
2022/05/09 15:35:32;;;;;;;;;;;;;;;;;;5043017;28;19924;-44
2022/05/09 15:37:57;;;;;;;;;;;;;;;;;;5040763;28;19920;-46
2022/05/09 15:40:22;;;;;;;;;;;;;;;;;;5041003;28;19917;-45
2022/05/09 15:42:47;;;;;;;;;;;;;;;;;;5043785;28;19920;-45
2022/05/09 15:45:12;;;;;;;;;;;;;;;;;;5062927;28;19921;-44
2022/05/09 15:47:39;;;;;;;;;;;;;;;;;;5041918;28;19967;-44
2022/05/09 15:50:04;;;;;;;;;;;;;;;;;;5047515;28;20072;-45
2022/05/09 15:52:30;;;;;;;;;;;;;;;;;;5046734;28;20415;-44
2022/05/09 15:55:00;;;;;;;;;;;;;;;;;;5043978;28;19920;-45
2022/05/09 15:57:25;;;;;;;;;;;;;;;;;;5048593;28;19913;-43
2022/05/09 15:59:50;;;;;;;;;;;;;;;;;;5045266;28;20265;-44
2022/05/09 16:02:15;;;;;;;;;;;;;;;;;;5050726;28;19935;-44
2022/05/09 16:04:41;;;;;;;;;;;;;;;;;;5046657;28;19916;-46
2022/05/09 16:12:34;;;;;;;;;;;;;;;;;;5040452;28;20425;-45
2022/05/09 16:14:59;;;;;;;;;;;;;;;;;;5046272;28;20003;-45
2022/05/09 16:17:24;;;;;;;;;;;;;;;;;;5053689;28;19912;-46
2022/05/09 16:19:49;;;;;;;;;;;;;;;;;;5053810;28;19917;-47
2022/05/09 16:22:15;;;;;;;;;;;;;;;;;;5058142;28;19913;-45
2022/05/09 16:24:41;;;;;;;;;;;;;;;;;;5057512;28;19917;-44
2022/05/09 16:27:06;;;;;;;;;;;;;;;;;;5058092;28;19963;-44
2022/05/09 16:29:31;;;;;;;;;;;;;;;;;;5057935;28;19913;-44
2022/05/09 16:31:56;;;;;;;;;;;;;;;;;;5056199;28;19924;-46
2022/05/09 16:34:23;;;;;;;;;;;;;;;;;;5057862;28;19920;-45
2022/05/09 16:36:48;;;;;;;;;;;;;;;;;;5058009;28;19909;-44
2022/05/09 16:39:13;;;;;;;;;;;;;;;;;;5057614;28;20320;-45
2022/05/09 16:41:38;;;;;;;;;;;;;;;;;;5057779;28;19934;-44
2022/05/09 16:44:03;;;;;;;;;;;;;;;;;;5057633;28;19984;-45
2022/05/09 16:46:29;;;;;;;;;;;;;;;;;;5057805;28;20449;-44
2022/05/09 16:48:54;;;;;;;;;;;;;;;;;;5057674;28;19915;-45
2022/05/09 16:51:20;;;;;;;;;;;;;;;;;;5057599;28;19909;-46
2022/05/09 16:53:46;;;;;;;;;;;;;;;;;;5057647;28;19915;-45
2022/05/09 16:56:11;;;;;;;;;;;;;;;;;;5057335;28;19913;-45